Time;durP1;ratioP1;P1;durP2;ratioP2;P2;SDS_P1;SDS_P2;PMS_P1;PMS_P2;Temp;Humidity;BMP_temperature;BMP_pressure;BME280_temperature;BME280_humidity;BME280_pressure;Samples;Min_cycle;Max_cycle;Signal;HPM_P1;HPM_P2
2021/06/22 00:00:45;;;;;;;10.50;4.83;;;;;;;27.28;49.26;100190.34;3417380;28;20047;-72
2021/06/22 00:02:26;;;;;;;8.20;4.67;;;;;;;27.26;49.47;100187.09;3417313;28;20058;-72
2021/06/22 00:04:07;;;;;;;11.50;5.77;;;;;;;27.24;48.83;100183.03;3417119;28;20646;-74
2021/06/22 00:05:47;;;;;;;12.53;5.00;;;;;;;27.24;49.21;100189.31;3416894;28;20459;-72
2021/06/22 00:07:28;;;;;;;8.57;4.67;;;;;;;27.24;49.41;100192.06;3417171;28;20122;-72
2021/06/22 00:09:09;;;;;;;8.77;4.13;;;;;;;27.24;48.92;100192.06;3417117;28;20054;-72
2021/06/22 00:10:50;;;;;;;7.20;4.63;;;;;;;27.23;49.46;100190.41;3417126;28;20051;-72
2021/06/22 00:12:30;;;;;;;11.77;5.00;;;;;;;27.22;49.54;100194.25;3417158;28;20426;-72
2021/06/22 00:14:11;;;;;;;9.00;4.73;;;;;;;27.21;49.39;100192.66;3416938;28;20039;-72
2021/06/22 00:15:52;;;;;;;9.40;4.77;;;;;;;27.18;49.11;100190.47;3416857;28;20305;-71
2021/06/22 00:17:33;;;;;;;9.13;5.00;;;;;;;27.20;49.75;100201.94;3417097;28;20517;-71
2021/06/22 00:19:13;;;;;;;10.53;4.10;;;;;;;27.19;49.53;100192.13;3416200;29;20051;-71
2021/06/22 00:20:54;;;;;;;8.07;4.67;;;;;;;27.16;49.69;100193.47;3416588;29;20387;-71
2021/06/22 00:22:36;;;;;;;15.90;5.33;;;;;;;27.16;49.73;100196.22;3416818;28;20050;-71
2021/06/22 00:24:16;;;;;;;9.38;4.57;;;;;;;27.15;49.70;100193.75;3416989;29;20534;-71
2021/06/22 00:25:59;;;;;;;8.23;4.27;;;;;;;27.16;49.44;100198.97;3416837;28;20046;-70
2021/06/22 00:27:39;;;;;;;9.55;5.15;;;;;;;27.13;49.24;100201.44;3417103;28;20070;-73
2021/06/22 00:29:23;;;;;;;10.25;5.25;;;;;;;27.13;49.56;100210.50;3415996;29;20470;-72
2021/06/22 00:31:03;;;;;;;7.68;4.65;;;;;;;27.09;49.53;100198.50;3413653;29;20047;-72
2021/06/22 00:32:45;;;;;;;9.87;4.93;;;;;;;27.09;49.55;100203.97;3413303;29;20043;-73
2021/06/22 00:34:25;;;;;;;7.95;4.22;;;;;;;27.08;49.64;100202.34;3413053;29;20481;-72
2021/06/22 00:36:06;;;;;;;7.70;4.80;;;;;;;27.09;49.91;100197.69;3416940;29;20045;-71
2021/06/22 00:37:47;;;;;;;7.80;4.43;;;;;;;27.08;50.00;100198.78;3416783;28;20499;-71
2021/06/22 00:39:28;;;;;;;11.32;5.00;;;;;;;27.08;49.79;100201.50;3415668;29;20422;-73
2021/06/22 00:41:09;;;;;;;13.48;5.20;;;;;;;27.05;49.50;100197.44;3413194;29;20043;-72
2021/06/22 00:42:50;;;;;;;10.60;5.27;;;;;;;27.05;49.40;100202.09;3412932;29;20053;-71
2021/06/22 00:44:31;;;;;;;11.13;5.20;;;;;;;26.98;49.93;100189.59;3413001;29;20055;-70
2021/06/22 00:46:11;;;;;;;9.93;4.43;;;;;;;27.04;49.49;100197.75;3402649;29;20438;-71
2021/06/22 00:47:52;;;;;;;8.30;4.67;;;;;;;27.04;49.67;100205.94;3413734;29;20395;-71
2021/06/22 00:49:33;;;;;;;10.50;5.05;;;;;;;27.00;49.97;100204.88;3415638;29;20178;-71
2021/06/22 00:51:14;;;;;;;13.15;5.10;;;;;;;27.03;50.04;100209.78;3399575;29;20097;-71
2021/06/22 00:52:56;;;;;;;11.57;4.90;;;;;;;27.02;50.08;100210.91;3412874;29;20057;-72
2021/06/22 00:54:40;;;;;;;15.25;4.78;;;;;;;27.03;50.00;100205.13;3416228;29;20113;-71
2021/06/22 00:56:22;;;;;;;13.38;5.38;;;;;;;27.00;49.90;100199.41;3415229;29;20126;-72
2021/06/22 00:58:06;;;;;;;9.95;5.35;;;;;;;27.02;49.64;100202.69;3413120;29;20118;-72
2021/06/22 00:59:48;;;;;;;14.43;5.57;;;;;;;27.01;49.57;100209.28;3416283;29;20043;-75
2021/06/22 01:01:30;;;;;;;10.90;4.80;;;;;;;26.97;49.52;100201.63;3415369;28;20046;-72
2021/06/22 01:03:11;;;;;;;12.43;5.00;;;;;;;26.94;50.04;100198.66;3412322;29;20116;-71
2021/06/22 01:04:59;;;;;;;10.35;4.65;;;;;;;26.94;50.39;100206.88;3415644;29;20106;-73
2021/06/22 01:06:50;;;;;;;17.33;4.53;;;;;;;26.94;50.30;100198.66;3415193;29;20057;-72
2021/06/22 01:08:32;;;;;;;17.03;6.00;;;;;;;26.95;50.32;100198.38;3412760;29;20047;-72
2021/06/22 01:10:13;;;;;;;7.88;5.07;;;;;;;26.91;50.25;100196.53;3416153;29;20138;-72
2021/06/22 01:12:00;;;;;;;11.13;5.25;;;;;;;26.95;49.79;100203.88;3415482;29;20609;-72
2021/06/22 01:13:41;;;;;;;13.50;5.97;;;;;;;26.94;50.10;100202.22;3413457;29;20149;-72
2021/06/22 01:15:28;;;;;;;16.35;5.47;;;;;;;26.93;50.18;100202.53;3412830;29;20173;-72
2021/06/22 01:17:14;;;;;;;10.82;5.20;;;;;;;26.92;50.02;100198.94;3414287;29;20110;-73
2021/06/22 01:19:00;;;;;;;11.15;4.20;;;;;;;26.93;50.32;100205.25;3415946;29;20043;-72
2021/06/22 01:20:43;;;;;;;12.13;5.82;;;;;;;26.94;50.10;100204.13;3388949;29;20447;-72
2021/06/22 01:22:23;;;;;;;10.93;5.72;;;;;;;26.95;50.46;100198.38;3407634;29;20043;-72
2021/06/22 01:24:12;;;;;;;8.90;4.97;;;;;;;26.95;50.37;100198.38;3415863;29;20510;-73
2021/06/22 01:25:53;;;;;;;13.02;4.88;;;;;;;26.97;50.22;100207.09;3415036;29;20299;-72
2021/06/22 01:27:34;;;;;;;12.52;5.13;;;;;;;26.98;50.45;100200.53;3412598;29;20047;-71
2021/06/22 01:29:16;;;;;;;12.15;5.82;;;;;;;26.98;50.59;100214.22;3415902;29;20050;-70
2021/06/22 01:30:58;;;;;;;12.77;5.72;;;;;;;27.00;50.19;100218.56;3414991;29;20043;-71
2021/06/22 01:32:40;;;;;;;12.57;5.57;;;;;;;27.01;50.25;100212.00;3399299;29;20118;-71
2021/06/22 01:34:22;;;;;;;13.80;5.60;;;;;;;27.01;50.54;100209.28;3410485;29;20046;-71
2021/06/22 01:36:04;;;;;;;9.23;5.45;;;;;;;27.01;49.87;100201.06;3412352;29;20423;-71
2021/06/22 01:38:00;;;;;;;16.15;6.38;;;;;;;27.04;50.00;100212.22;3415798;29;20054;-71
2021/06/22 01:39:47;;;;;;;11.65;5.22;;;;;;;27.01;50.37;100206.53;3414705;29;20039;-72
2021/06/22 01:41:28;;;;;;;9.95;4.90;;;;;;;27.02;50.43;100208.16;3415802;29;20475;-73
2021/06/22 01:43:09;;;;;;;14.97;5.90;;;;;;;27.04;50.30;100214.16;3416038;28;20145;-72
2021/06/22 01:44:53;;;;;;;11.18;5.40;;;;;;;27.04;50.13;100214.16;3414875;28;20494;-72
2021/06/22 01:46:35;;;;;;;17.58;6.22;;;;;;;27.04;50.15;100219.63;3412910;29;20054;-72
2021/06/22 01:48:16;;;;;;;8.30;5.10;;;;;;;27.04;50.12;100216.91;3415607;29;20125;-72
2021/06/22 01:50:02;;;;;;;;;;;;;;;27.09;50.12;100217.66;3416257;28;20800;-72
2021/06/22 01:51:48;;;;;;;13.65;5.95;;;;;;;27.04;49.93;100214.97;3414741;29;19914;-71
2021/06/22 01:53:29;;;;;;;18.87;5.53;;;;;;;27.05;49.81;100222.06;3414662;29;20050;-72
2021/06/22 01:57:36;;;;;;;15.15;6.65;;;;;;;27.06;49.91;100217.44;3400904;29;20070;-72
2021/06/22 01:59:33;;;;;;;15.02;6.57;;;;;;;27.05;50.01;100224.78;3406106;29;20598;-72
2021/06/22 02:01:20;;;;;;;11.90;6.32;;;;;;;27.07;50.07;100230.00;3412905;29;20511;-72
2021/06/22 02:03:19;;;;;;;14.70;6.63;;;;;;;27.08;49.84;100226.13;3400820;29;20605;-73
2021/06/22 02:05:00;;;;;;;20.95;6.57;;;;;;;27.09;49.91;100230.53;3409848;29;20049;-73
2021/06/22 02:06:41;;;;;;;17.92;6.75;;;;;;;27.09;50.40;100227.78;3411954;29;20054;-72
2021/06/22 02:08:40;;;;;;;16.88;6.38;;;;;;;27.09;50.00;100236.00;3415540;29;20043;-72
2021/06/22 02:10:22;;;;;;;18.73;6.70;;;;;;;27.09;50.58;100236.00;3414635;29;20097;-71
2021/06/22 02:12:21;;;;;;;16.80;7.00;;;;;;;27.10;50.42;100229.41;3415476;29;20046;-72
2021/06/22 02:14:05;;;;;;;15.00;6.17;;;;;;;27.11;50.54;100229.13;3414687;28;20035;-72
2021/06/22 02:15:47;;;;;;;16.02;6.55;;;;;;;27.14;50.50;100233.19;3412173;29;20039;-71
2021/06/22 02:17:29;;;;;;;17.42;6.65;;;;;;;27.13;50.11;100226.91;3411990;29;20039;-71
2021/06/22 02:19:11;;;;;;;14.00;6.75;;;;;;;27.16;50.33;100241.94;3411978;29;20043;-70
2021/06/22 02:20:53;;;;;;;12.32;7.13;;;;;;;27.19;50.19;100235.91;3411771;29;20529;-71
2021/06/22 02:22:34;;;;;;;15.80;6.60;;;;;;;27.19;50.28;100236.72;3411506;29;20123;-72
2021/06/22 02:24:15;;;;;;;10.55;6.55;;;;;;;27.22;50.42;100240.78;3412058;29;20058;-70
2021/06/22 02:25:56;;;;;;;8.73;6.30;;;;;;;27.25;50.21;100234.72;3414738;29;20039;-71
2021/06/22 02:27:39;;;;;;;17.63;6.70;;;;;;;27.29;50.01;100241.25;3412373;29;20035;-71
2021/06/22 02:29:20;;;;;;;18.83;7.30;;;;;;;27.31;50.07;100241.78;3414815;29;20513;-71
2021/06/22 02:31:01;;;;;;;12.33;6.33;;;;;;;27.33;49.72;100249.69;3414028;29;20043;-71
2021/06/22 02:32:42;;;;;;;16.77;7.32;;;;;;;27.32;49.96;100248.88;3414223;29;20351;-71
2021/06/22 02:34:28;;;;;;;21.30;7.80;;;;;;;27.30;50.11;100239.31;3413550;29;20039;-72
2021/06/22 02:36:10;;;;;;;14.27;6.97;;;;;;;27.32;49.98;100245.34;3412973;29;20039;-72
2021/06/22 02:37:58;;;;;;;15.80;7.00;;;;;;;27.30;49.70;100242.88;3415103;29;20043;-71
2021/06/22 02:39:39;;;;;;;18.90;6.78;;;;;;;27.32;49.59;100243.41;3415500;28;20047;-73
2021/06/22 02:41:20;;;;;;;23.92;7.18;;;;;;;27.33;49.54;100247.75;3414718;29;20075;-71
2021/06/22 02:43:07;;;;;;;12.65;7.22;;;;;;;27.37;49.86;100248.81;3412449;29;21011;-72
2021/06/22 02:44:49;;;;;;;14.63;7.00;;;;;;;27.39;49.86;100251.25;3412756;29;20533;-74
2021/06/22 02:46:30;;;;;;;14.27;6.00;;;;;;;27.40;49.90;100248.22;3415716;29;20128;-72
2021/06/22 02:48:11;;;;;;;17.03;6.87;;;;;;;27.43;49.75;100251.50;3415336;29;20294;-72
2021/06/22 02:49:52;;;;;;;15.07;6.43;;;;;;;27.43;49.57;100246.81;3411823;29;20043;-71
2021/06/22 02:51:33;;;;;;;16.85;6.93;;;;;;;27.43;49.69;100249.56;3411483;29;20058;-72
2021/06/22 02:53:14;;;;;;;15.13;6.97;;;;;;;27.44;49.71;100253.09;3413926;29;20522;-72
2021/06/22 02:54:57;;;;;;;15.20;7.30;;;;;;;27.46;49.45;100248.97;3414441;29;20047;-71
2021/06/22 02:56:38;;;;;;;19.92;7.50;;;;;;;27.48;49.44;100254.16;3413851;29;20502;-73
2021/06/22 02:58:19;;;;;;;13.65;7.20;;;;;;;27.48;49.62;100248.69;3413566;29;20506;-72
2021/06/22 03:00:07;;;;;;;17.52;7.90;;;;;;;27.52;49.22;100244.22;3398724;29;20432;-72
2021/06/22 03:01:48;;;;;;;16.98;8.00;;;;;;;27.54;49.53;100247.50;3396495;29;20055;-71
2021/06/22 03:03:31;;;;;;;14.02;7.55;;;;;;;27.50;49.39;100241.81;3409329;29;20046;-71
2021/06/22 03:05:20;;;;;;;15.60;7.88;;;;;;;27.55;48.93;100247.22;3413803;29;20053;-71
2021/06/22 03:07:01;;;;;;;19.40;8.63;;;;;;;27.51;49.17;100250.84;3414757;29;20109;-70
2021/06/22 03:08:49;;;;;;;14.00;7.13;;;;;;;27.44;49.10;100244.88;3400634;29;20047;-70
2021/06/22 03:10:31;;;;;;;21.00;8.35;;;;;;;27.40;48.89;100248.22;3397067;29;20679;-70
2021/06/22 03:12:12;;;;;;;21.13;8.60;;;;;;;27.38;48.75;100244.16;3412955;29;20066;-73
2021/06/22 03:14:22;;;;;;;17.13;6.97;;;;;;;27.38;49.17;100244.16;3409963;28;20059;-73
2021/06/22 03:16:23;;;;;;;20.83;7.53;;;;;;;27.38;48.59;100246.88;3414775;28;20043;-73
2021/06/22 03:18:04;;;;;;;13.70;7.60;;;;;;;27.37;48.71;100245.25;3414866;28;20522;-70
2021/06/22 03:19:51;;;;;;;20.58;8.60;;;;;;;27.32;49.06;100246.13;3413758;29;20080;-69
2021/06/22 03:21:34;;;;;;;14.48;7.22;;;;;;;27.31;48.74;100239.03;3400589;29;20597;-70
2021/06/22 03:23:14;;;;;;;17.13;6.40;;;;;;;27.26;48.93;100230.91;3411835;29;20086;-70
2021/06/22 03:24:56;;;;;;;15.23;7.63;;;;;;;27.26;48.61;100238.28;3413597;28;20071;-70
2021/06/22 03:26:37;;;;;;;19.45;7.10;;;;;;;27.23;48.47;100241.59;3416744;29;20050;-71
2021/06/22 03:28:18;;;;;;;10.48;6.07;;;;;;;27.19;48.47;100241.38;3417471;28;20039;-73
2021/06/22 03:30:20;;;;;;;18.02;7.10;;;;;;;27.21;48.59;100241.91;3406508;29;20138;-70
2021/06/22 03:32:00;;;;;;;18.83;7.67;;;;;;;27.24;48.38;100243.25;3416695;29;20047;-69
2021/06/22 03:33:41;;;;;;;11.83;6.27;;;;;;;27.22;48.53;100240.78;3414074;29;20105;-71
2021/06/22 03:35:26;;;;;;;13.13;6.90;;;;;;;27.27;48.54;100248.94;3417188;29;20129;-70
2021/06/22 03:37:07;;;;;;;16.10;6.28;;;;;;;27.27;48.41;100238.00;3417695;28;20050;-69
2021/06/22 03:38:51;;;;;;;23.52;6.47;;;;;;;27.28;48.71;100245.09;3416196;29;20035;-70
2021/06/22 03:40:32;;;;;;;17.40;6.60;;;;;;;27.33;48.38;100242.28;3405777;29;20427;-73
2021/06/22 03:42:13;;;;;;;15.57;6.45;;;;;;;27.36;48.85;100249.94;3411064;29;20047;-70
2021/06/22 03:43:56;;;;;;;15.52;5.90;;;;;;;27.41;48.23;100251.78;3413605;29;20577;-69
2021/06/22 03:45:37;;;;;;;11.73;5.20;;;;;;;27.44;48.59;100253.09;3400906;29;20080;-68
2021/06/22 03:47:19;;;;;;;12.07;5.28;;;;;;;27.48;48.60;100249.50;3411431;29;20046;-69
2021/06/22 03:49:00;;;;;;;13.52;6.50;;;;;;;27.51;48.07;100248.09;3413967;29;20046;-69
2021/06/22 03:50:41;;;;;;;12.20;5.65;;;;;;;27.53;48.34;100245.88;3413909;29;20107;-70
2021/06/22 03:52:23;;;;;;;13.15;6.05;;;;;;;27.55;47.77;100243.66;3414375;29;20523;-70
2021/06/22 03:54:05;;;;;;;16.23;6.45;;;;;;;27.56;47.82;100242.56;3416701;28;20050;-71
2021/06/22 03:55:46;;;;;;;16.83;6.25;;;;;;;27.57;48.33;100246.91;3413941;29;20043;-70
2021/06/22 03:57:46;;;;;;;12.35;5.72;;;;;;;27.56;47.81;100242.56;3410532;28;20059;-70
2021/06/22 03:59:28;;;;;;;18.60;6.15;;;;;;;27.59;47.68;100250.16;3417214;28;20043;-70
2021/06/22 04:01:09;;;;;;;17.48;5.47;;;;;;;27.62;48.16;100249.56;3416530;29;20260;-70
2021/06/22 04:02:59;;;;;;;10.65;5.03;;;;;;;27.66;47.89;100247.88;3416232;29;20498;-70
2021/06/22 04:04:42;;;;;;;16.65;5.97;;;;;;;27.66;48.16;100250.63;3417119;29;20047;-69
2021/06/22 04:06:41;;;;;;;15.98;5.82;;;;;;;27.67;47.72;100254.97;3417656;28;20074;-70
2021/06/22 04:08:21;;;;;;;17.70;7.30;;;;;;;27.68;47.97;100253.09;3417349;28;20040;-69
2021/06/22 04:10:04;;;;;;;16.77;5.78;;;;;;;27.68;48.01;100253.91;3416785;29;20406;-70
2021/06/22 04:11:47;;;;;;;17.20;5.63;;;;;;;27.70;47.78;100259.91;3413850;29;20081;-70
2021/06/22 04:13:28;;;;;;;18.83;6.07;;;;;;;27.71;47.79;100252.50;3413500;29;20418;-70
2021/06/22 04:15:12;;;;;;;14.80;5.45;;;;;;;27.75;47.85;100262.56;3414457;29;20134;-71
2021/06/22 04:16:53;;;;;;;;;;;;;;;27.83;47.26;100256.44;3416043;29;20453;-71
2021/06/22 04:18:35;;;;;;;16.38;4.95;;;;;;;27.80;47.67;100250.69;3416644;29;19922;-71
2021/06/22 04:20:21;;;;;;;19.15;5.22;;;;;;;27.82;47.33;100254.81;3415869;29;20095;-71
2021/06/22 04:22:03;;;;;;;13.15;5.45;;;;;;;27.84;47.12;100260.00;3413437;29;20069;-74
2021/06/22 04:24:07;;;;;;;15.75;5.25;;;;;;;27.86;47.38;100254.25;3416345;28;20126;-74
2021/06/22 04:25:50;;;;;;;15.82;5.95;;;;;;;27.88;47.10;100252.81;3415487;28;20078;-74
2021/06/22 04:27:31;;;;;;;14.00;5.43;;;;;;;27.90;47.14;100247.03;3399895;29;20553;-74
2021/06/22 04:29:12;;;;;;;13.03;5.43;;;;;;;27.91;47.33;100251.41;3414033;29;20054;-75
2021/06/22 04:30:53;;;;;;;13.43;5.47;;;;;;;27.90;47.29;100249.78;3416683;28;20043;-73
2021/06/22 04:32:33;;;;;;;14.93;5.23;;;;;;;27.88;47.31;100244.63;3416764;28;20039;-73
2021/06/22 04:34:14;;;;;;;16.90;5.20;;;;;;;27.92;46.92;100250.31;3416872;28;20126;-73
2021/06/22 04:35:55;;;;;;;13.80;5.37;;;;;;;27.95;46.96;100252.44;3415695;29;20043;-75
2021/06/22 04:37:37;;;;;;;11.98;5.30;;;;;;;27.94;46.71;100246.16;3416659;28;20373;-74
2021/06/22 04:39:17;;;;;;;;;;;;;;;28.08;46.73;100246.22;3415942;29;20039;-74
2021/06/22 04:40:58;;;;;;;13.88;4.78;;;;;;;28.08;46.42;100250.88;3412998;29;19914;-74
2021/06/22 04:42:39;;;;;;;13.90;4.87;;;;;;;28.12;45.78;100251.94;3416173;29;20043;-74
2021/06/22 04:44:19;;;;;;;13.73;4.70;;;;;;;28.15;45.42;100252.13;3416636;28;20186;-74
2021/06/22 04:46:00;;;;;;;13.73;4.43;;;;;;;28.19;45.56;100250.44;3419271;28;20043;-74
2021/06/22 04:47:42;;;;;;;;;;;;;;;28.25;45.31;100257.44;3419217;28;20047;-74
2021/06/22 04:49:22;;;;;;;6.93;3.55;;;;;;;28.22;45.33;100251.75;3419452;28;19921;-74
2021/06/22 04:51:04;;;;;;;10.68;4.47;;;;;;;28.24;45.14;100246.78;3415418;29;20047;-70
2021/06/22 04:52:45;;;;;;;10.10;4.10;;;;;;;28.29;44.82;100254.91;3415606;29;20046;-69
2021/06/22 04:54:26;;;;;;;9.40;3.90;;;;;;;28.31;44.96;100254.63;3416212;29;20136;-70
2021/06/22 04:56:07;;;;;;;13.30;4.20;;;;;;;28.35;45.28;100245.50;3416337;28;20035;-73
2021/06/22 04:57:47;;;;;;;9.80;3.92;;;;;;;28.37;44.64;100248.78;3416122;28;20054;-73
2021/06/22 04:59:28;;;;;;;10.90;4.15;;;;;;;28.41;44.96;100251.72;3415179;29;20043;-72
2021/06/22 05:01:09;;;;;;;9.97;3.70;;;;;;;28.43;44.92;100263.22;3416212;29;20420;-72
2021/06/22 05:02:50;;;;;;;8.65;3.63;;;;;;;28.48;44.10;100260.41;3416299;28;20043;-76
2021/06/22 05:04:32;;;;;;;15.20;3.70;;;;;;;28.51;44.41;100268.03;3415459;29;20043;-74
2021/06/22 05:06:13;;;;;;;8.95;3.78;;;;;;;28.52;44.05;100260.63;3412569;29;20302;-74
2021/06/22 05:07:54;;;;;;;15.07;4.27;;;;;;;28.57;43.57;100264.06;3416084;29;20053;-71
2021/06/22 05:09:35;;;;;;;7.22;3.25;;;;;;;28.60;43.86;100259.91;3416307;28;20298;-69
2021/06/22 05:11:16;;;;;;;6.85;4.05;;;;;;;28.67;43.26;100274.88;3416373;28;20405;-70
2021/06/22 05:12:56;;;;;;;11.13;3.87;;;;;;;28.72;43.40;100264.94;3416317;28;20453;-69
2021/06/22 05:14:37;;;;;;;10.17;3.80;;;;;;;28.74;43.48;100268.19;3416276;28;20517;-69
2021/06/22 05:16:18;;;;;;;10.27;2.80;;;;;;;28.78;42.82;100266.47;3415898;28;20047;-70
2021/06/22 05:17:58;;;;;;;7.10;2.63;;;;;;;28.81;42.76;100268.59;3416277;28;20046;-70
2021/06/22 05:19:39;;;;;;;7.97;3.23;;;;;;;28.83;42.64;100269.13;3416154;28;20133;-69
2021/06/22 05:21:20;;;;;;;6.63;3.23;;;;;;;28.84;42.76;100265.28;3416227;28;20050;-71
2021/06/22 05:23:00;;;;;;;9.63;3.40;;;;;;;28.91;42.30;100268.41;3415059;29;20166;-70
2021/06/22 05:24:41;;;;;;;8.83;4.07;;;;;;;28.92;42.25;100265.38;3415798;29;20581;-70
2021/06/22 05:26:23;;;;;;;9.90;3.45;;;;;;;29.03;42.01;100270.66;3415700;28;20043;-70
2021/06/22 05:28:04;;;;;;;8.50;3.30;;;;;;;29.07;41.61;100261.56;3415815;28;20035;-71
2021/06/22 05:29:45;;;;;;;9.93;3.58;;;;;;;29.12;41.69;100263.38;3416064;28;20058;-74
2021/06/22 05:31:25;;;;;;;7.40;3.13;;;;;;;29.12;41.12;100266.97;3415820;28;20086;-77
2021/06/22 05:33:06;;;;;;;4.93;3.50;;;;;;;29.16;41.27;100258.09;3415060;29;20422;-70
2021/06/22 05:34:47;;;;;;;5.13;2.53;;;;;;;29.19;41.12;100262.97;3415557;29;20864;-71
2021/06/22 05:36:28;;;;;;;10.53;3.37;;;;;;;29.21;41.48;100258.00;3414878;29;20039;-71
2021/06/22 05:38:08;;;;;;;5.90;3.50;;;;;;;29.26;41.58;100263.41;3415861;29;20051;-72
2021/06/22 05:39:49;;;;;;;6.60;4.13;;;;;;;29.27;41.02;100265.00;3415662;28;20055;-71
2021/06/22 05:41:30;;;;;;;10.20;3.63;;;;;;;29.31;41.29;100266.84;3415137;29;20569;-71
2021/06/22 05:43:10;;;;;;;9.33;3.30;;;;;;;29.38;41.31;100269.19;3415466;29;20054;-71
2021/06/22 05:44:51;;;;;;;12.43;4.50;;;;;;;29.38;41.32;100252.72;3415755;28;20043;-71
2021/06/22 05:46:32;;;;;;;7.93;3.10;;;;;;;29.46;40.76;100262.97;3414403;29;20298;-70
2021/06/22 05:48:13;;;;;;;6.77;3.40;;;;;;;29.51;40.39;100262.88;3415080;28;20085;-70
2021/06/22 05:49:54;;;;;;;7.33;3.53;;;;;;;29.53;40.50;100260.63;3415298;28;20303;-70
2021/06/22 05:51:35;;;;;;;11.33;4.07;;;;;;;29.57;39.98;100264.38;3415659;28;20778;-71
2021/06/22 05:53:17;;;;;;;8.75;3.30;;;;;;;29.61;40.64;100258.25;3414402;29;20608;-71
2021/06/22 05:54:57;;;;;;;9.73;3.50;;;;;;;29.70;40.85;100259.19;3415585;29;20106;-72
2021/06/22 05:56:38;;;;;;;4.32;3.33;;;;;;;29.76;41.05;100260.69;3415532;28;20418;-72
2021/06/22 05:58:19;;;;;;;12.43;4.57;;;;;;;29.82;41.00;100254.00;3415184;28;20066;-71
2021/06/22 05:59:59;;;;;;;10.83;3.43;;;;;;;29.89;41.13;100257.09;3414560;29;20286;-71
2021/06/22 06:01:41;;;;;;;14.93;3.75;;;;;;;29.94;40.93;100256.97;3415237;29;20049;-71
2021/06/22 06:03:22;;;;;;;7.20;3.53;;;;;;;30.00;41.21;100258.50;3415330;28;20095;-70
2021/06/22 06:05:03;;;;;;;19.65;3.92;;;;;;;30.08;41.58;100261.66;3414546;29;20058;-70
2021/06/22 06:06:50;;;;;;;8.13;3.42;;;;;;;30.12;41.12;100248.88;3412180;29;20177;-72
2021/06/22 06:08:34;;;;;;;9.80;3.40;;;;;;;30.16;41.17;100247.94;3412115;29;20430;-72
2021/06/22 06:10:15;;;;;;;11.32;4.45;;;;;;;30.21;41.34;100249.78;3415264;29;20054;-71
2021/06/22 06:11:56;;;;;;;;;;;;;;;30.31;41.37;100249.56;3415819;28;20051;-71
2021/06/22 06:13:37;;;;;;;15.23;5.15;;;;;;;30.33;41.49;100246.47;3415341;28;20043;-72
2021/06/22 06:15:19;;;;;;;17.67;4.65;;;;;;;30.39;41.57;100251.53;3415334;28;20480;-70
2021/06/22 06:16:59;;;;;;;20.30;5.45;;;;;;;30.47;41.61;100246.41;3414485;29;20162;-71
2021/06/22 06:18:40;;;;;;;10.97;4.10;;;;;;;30.57;41.46;100249.72;3415048;29;20526;-71
2021/06/22 06:20:21;;;;;;;7.80;3.25;;;;;;;30.55;41.29;100234.66;3415267;28;20294;-71
2021/06/22 06:22:02;;;;;;;9.25;4.85;;;;;;;30.65;40.85;100250.88;3415176;28;20499;-71
2021/06/22 06:23:49;;;;;;;8.65;4.13;;;;;;;30.66;40.98;100244.25;3415186;28;20514;-71
2021/06/22 06:25:30;;;;;;;10.50;3.97;;;;;;;30.76;40.68;100243.97;3400858;29;20044;-71
2021/06/22 06:27:17;;;;;;;11.93;3.97;;;;;;;30.84;40.50;100245.19;3411304;29;20102;-71
2021/06/22 06:29:06;;;;;;;12.57;4.65;;;;;;;30.93;40.32;100243.28;3414004;29;20326;-71
2021/06/22 06:30:47;;;;;;;8.90;3.50;;;;;;;31.00;40.04;100249.13;3415011;29;20047;-71
2021/06/22 06:32:28;;;;;;;11.20;4.30;;;;;;;31.10;39.95;100248.03;3415042;28;20442;-71
2021/06/22 06:34:08;;;;;;;8.20;3.93;;;;;;;31.17;39.94;100253.91;3415355;28;20046;-71
2021/06/22 06:35:53;;;;;;;11.23;3.77;;;;;;;31.24;40.00;100248.75;3414941;28;20309;-70
2021/06/22 06:37:33;;;;;;;10.30;3.67;;;;;;;31.33;39.54;100246.00;3415013;28;20098;-70
2021/06/22 06:39:14;;;;;;;5.35;4.07;;;;;;;31.40;39.69;100240.88;3415076;28;20125;-72
2021/06/22 06:40:55;;;;;;;11.20;4.10;;;;;;;31.51;39.34;100233.09;3414966;28;20126;-73
2021/06/22 06:42:39;;;;;;;8.68;4.07;;;;;;;31.64;39.61;100245.13;3413964;29;20090;-71
2021/06/22 06:44:20;;;;;;;8.85;3.65;;;;;;;31.70;39.18;100235.53;3414423;29;20039;-71
2021/06/22 06:46:00;;;;;;;8.03;3.70;;;;;;;31.80;38.85;100237.19;3414701;28;20643;-70
2021/06/22 06:47:41;;;;;;;11.67;3.80;;;;;;;31.89;38.42;100243.53;3414966;28;20078;-72
2021/06/22 06:49:22;;;;;;;13.20;4.00;;;;;;;31.99;38.18;100234.97;3413757;29;20398;-70
2021/06/22 06:51:03;;;;;;;5.10;3.33;;;;;;;32.08;38.51;100235.75;3414816;29;20110;-70
2021/06/22 06:52:44;;;;;;;10.35;4.20;;;;;;;32.11;38.40;100237.03;3414663;28;20051;-70
2021/06/22 06:54:25;;;;;;;7.65;4.00;;;;;;;32.14;38.67;100231.69;3413421;29;20462;-71
2021/06/22 06:56:06;;;;;;;9.52;3.95;;;;;;;32.23;38.17;100233.63;3410992;29;20987;-71
2021/06/22 06:57:46;;;;;;;7.53;3.60;;;;;;;32.31;38.16;100238.31;3414310;29;20062;-71
2021/06/22 06:59:27;;;;;;;6.73;3.23;;;;;;;32.34;38.20;100235.72;3414957;28;20297;-70
2021/06/22 07:01:08;;;;;;;12.43;3.55;;;;;;;32.44;37.79;100240.06;3413940;28;20043;-71
2021/06/22 07:02:52;;;;;;;9.15;3.33;;;;;;;32.51;37.29;100242.38;3413682;29;20043;-71
2021/06/22 07:04:33;;;;;;;7.93;3.30;;;;;;;32.63;37.36;100230.63;3411482;29;20126;-71
2021/06/22 07:06:14;;;;;;;9.63;3.78;;;;;;;32.74;37.39;100237.44;3414425;29;20039;-71
2021/06/22 07:07:56;;;;;;;7.97;3.47;;;;;;;32.90;36.94;100235.75;3414518;28;20158;-71
2021/06/22 07:09:36;;;;;;;;;;;;;;;33.05;37.12;100239.94;3415455;28;20051;-72
2021/06/22 07:11:21;;;;;;;11.38;3.67;;;;;;;33.15;36.77;100238.75;3413544;29;19914;-71
2021/06/22 07:13:12;;;;;;;8.02;3.22;;;;;;;33.25;36.16;100238.34;3414411;29;20047;-72
2021/06/22 07:14:54;;;;;;;10.77;3.45;;;;;;;33.30;36.32;100238.16;3414620;28;20050;-72
2021/06/22 07:16:35;;;;;;;8.27;3.55;;;;;;;33.36;36.59;100231.31;3414313;28;20186;-72
2021/06/22 07:18:16;;;;;;;7.22;3.10;;;;;;;33.44;36.50;100232.41;3414887;28;20125;-71
2021/06/22 07:19:56;;;;;;;10.77;4.00;;;;;;;33.53;36.37;100233.13;3414740;28;20047;-71
2021/06/22 07:21:37;;;;;;;10.23;3.72;;;;;;;33.64;36.71;100231.63;3414521;28;20042;-72
2021/06/22 07:23:18;;;;;;;13.48;3.67;;;;;;;33.78;36.52;100238.84;3414334;28;20146;-71
2021/06/22 07:24:59;;;;;;;11.82;4.20;;;;;;;33.93;36.17;100234.66;3414445;28;20043;-72
2021/06/22 07:26:41;;;;;;;8.70;3.15;;;;;;;34.06;36.01;100236.34;3413443;29;20043;-71
2021/06/22 07:28:22;;;;;;;9.95;4.05;;;;;;;34.17;36.16;100236.75;3414335;29;20058;-72
2021/06/22 07:30:03;;;;;;;9.63;3.55;;;;;;;34.23;35.85;100232.63;3414528;28;20047;-72
2021/06/22 07:31:45;;;;;;;9.23;3.42;;;;;;;34.28;35.56;100232.41;3414613;28;20047;-72
2021/06/22 07:33:26;;;;;;;10.38;3.78;;;;;;;34.33;35.42;100234.16;3413612;29;20074;-71
2021/06/22 07:35:07;;;;;;;15.23;3.70;;;;;;;34.30;34.86;100224.56;3414217;29;20172;-71
2021/06/22 07:36:48;;;;;;;10.57;4.82;;;;;;;34.36;35.41;100227.94;3414580;28;20066;-71
2021/06/22 07:38:29;;;;;;;12.00;6.25;;;;;;;34.45;35.29;100225.88;3414338;28;20392;-71
2021/06/22 07:40:11;;;;;;;7.22;3.75;;;;;;;34.58;35.28;100224.78;3413445;28;20046;-72
2021/06/22 07:41:51;;;;;;;11.68;3.85;;;;;;;34.76;34.80;100230.94;3414114;29;20511;-70
2021/06/22 07:43:32;;;;;;;6.25;3.88;;;;;;;34.86;34.69;100233.25;3414302;28;20123;-72
2021/06/22 07:45:14;;;;;;;5.63;3.97;;;;;;;34.83;34.58;100242.25;3414740;28;20047;-71
2021/06/22 07:46:54;;;;;;;8.63;3.33;;;;;;;34.77;34.54;100235.31;3414288;28;20199;-72
2021/06/22 07:48:35;;;;;;;7.68;4.30;;;;;;;34.71;34.34;100240.28;3414551;28;20047;-72
2021/06/22 07:50:16;;;;;;;8.57;3.35;;;;;;;34.63;34.19;100238.41;3413663;29;20047;-71
2021/06/22 07:51:57;;;;;;;9.75;3.17;;;;;;;34.62;33.88;100235.97;3414269;29;20118;-72
2021/06/22 07:53:37;;;;;;;16.35;3.13;;;;;;;34.70;33.87;100238.66;3414623;28;20051;-72
2021/06/22 07:55:18;;;;;;;17.60;3.58;;;;;;;34.88;33.07;100241.22;3414431;28;20043;-72
2021/06/22 07:56:59;;;;;;;16.20;3.30;;;;;;;34.97;33.10;100226.09;3413548;29;20054;-71